Time;durP1;ratioP1;P1;durP2;ratioP2;P2;SDS_P1;SDS_P2;PMS_P1;PMS_P2;Temp;Humidity;BMP_temperature;BMP_pressure;BME280_temperature;BME280_humidity;BME280_pressure;Samples;Min_cycle;Max_cycle;Signal;HPM_P1;HPM_P2
2022/12/19 00:01:57;;;;;;;39.03;13.68;;;;;;;-148.88;100.00;78052.84;5017025;28;20030;-82
2022/12/19 00:04:22;;;;;;;38.38;14.27;;;;;;;-148.88;100.00;78052.84;5017215;28;20101;-82
2022/12/19 00:06:47;;;;;;;38.88;12.65;;;;;;;-148.88;100.00;78048.78;5017124;28;20048;-80
2022/12/19 00:09:13;;;;;;;32.85;14.27;;;;;;;-148.88;100.00;78036.56;5015053;28;20448;-82
2022/12/19 00:11:41;;;;;;;33.38;13.50;;;;;;;-148.88;100.00;78038.59;5017105;28;20101;-82
2022/12/19 00:14:10;;;;;;;34.58;14.77;;;;;;;-148.88;100.00;78028.44;5017023;28;20053;-82
2022/12/19 00:16:35;;;;;;;32.08;13.45;;;;;;;-148.88;100.00;78022.34;5015180;28;20032;-82
2022/12/19 00:19:01;;;;;;;40.25;15.27;;;;;;;-148.88;100.00;78026.41;5015578;28;20026;-82
2022/12/19 00:21:29;;;;;;;36.63;13.30;;;;;;;-148.88;100.00;78028.44;5015027;28;20448;-82
2022/12/19 00:23:55;;;;;;;37.47;13.98;;;;;;;-148.88;100.00;78026.41;5015881;28;20105;-82
2022/12/19 00:26:23;;;;;;;41.42;14.52;;;;;;;-148.88;100.00;78022.34;5016314;28;20045;-82
2022/12/19 00:28:52;;;;;;;32.28;14.27;;;;;;;-148.88;100.00;78010.16;5015901;28;20026;-82
2022/12/19 00:31:19;;;;;;;39.55;14.88;;;;;;;-148.88;100.00;78014.22;5015814;28;20054;-82
2022/12/19 00:33:44;;;;;;;39.08;14.30;;;;;;;-148.88;100.00;78000.00;5016327;28;20041;-82
2022/12/19 00:36:13;;;;;;;36.65;15.20;;;;;;;-148.88;100.00;78000.00;5016406;28;20034;-82
2022/12/19 00:38:39;;;;;;;40.05;15.30;;;;;;;-148.88;100.00;77991.84;4998720;28;20029;-82
2022/12/19 00:41:09;;;;;;;38.42;13.80;;;;;;;-148.88;100.00;77983.72;5015413;28;20044;-82
2022/12/19 00:43:35;;;;;;;38.58;13.85;;;;;;;-148.88;100.00;77979.66;5017500;28;20068;-82
2022/12/19 00:46:02;;;;;;;40.70;16.23;;;;;;;-148.88;100.00;77979.66;5018675;28;20026;-82
2022/12/19 00:48:29;;;;;;;42.97;15.02;;;;;;;-148.88;100.00;77975.59;5017167;28;20026;-82
2022/12/19 00:51:05;;;;;;;43.28;15.85;;;;;;;-148.88;100.00;77967.47;5017460;28;20504;-82
2022/12/19 00:53:31;;;;;;;41.13;15.48;;;;;;;-148.88;100.00;77965.44;5014757;28;20116;-82
2022/12/19 00:56:04;;;;;;;36.97;16.00;;;;;;;-148.88;100.00;77967.47;5015871;28;20065;-82
2022/12/19 00:58:30;;;;;;;38.85;14.57;;;;;;;-148.88;100.00;77951.22;5016363;28;20028;-82
2022/12/19 01:00:56;;;;;;;48.50;16.70;;;;;;;-148.88;100.00;77953.25;5016762;28;20109;-82
2022/12/19 01:03:22;;;;;;;41.97;17.33;;;;;;;-148.88;100.00;77945.13;5016871;28;20044;-82
2022/12/19 01:05:49;;;;;;;44.47;16.73;;;;;;;-148.88;100.00;77934.97;5016247;28;20038;-82
2022/12/19 01:08:14;;;;;;;50.55;17.25;;;;;;;-148.88;100.00;77934.97;5018072;28;20061;-82
2022/12/19 01:10:44;;;;;;;42.88;15.85;;;;;;;-148.88;100.00;77926.81;5016851;28;20045;-83
2022/12/19 01:13:10;;;;;;;46.15;15.90;;;;;;;-148.88;100.00;77922.75;5018187;28;20151;-82
2022/12/19 01:15:38;;;;;;;48.30;17.10;;;;;;;-148.88;100.00;77918.69;5017886;28;20078;-83
2022/12/19 01:18:04;;;;;;;42.40;16.52;;;;;;;-148.88;100.00;77916.66;5016994;28;20028;-82
2022/12/19 01:20:29;;;;;;;47.35;17.23;;;;;;;-148.88;100.00;77908.53;5017531;28;20033;-82
2022/12/19 01:22:57;;;;;;;48.72;17.45;;;;;;;-148.88;100.00;77906.50;5017631;28;20050;-82
2022/12/19 01:25:23;;;;;;;51.45;16.52;;;;;;;-148.88;100.00;77894.31;5017708;28;20083;-82
2022/12/19 01:27:48;;;;;;;40.08;16.30;;;;;;;-148.88;100.00;77890.25;5014769;28;20037;-83
2022/12/19 01:30:13;;;;;;;46.85;17.67;;;;;;;-148.88;100.00;77886.19;5014815;28;20029;-82
2022/12/19 01:32:39;;;;;;;44.22;16.90;;;;;;;-148.88;100.00;77890.25;5014900;28;20155;-81
2022/12/19 01:35:04;;;;;;;48.67;17.60;;;;;;;-148.88;100.00;77882.13;5015143;28;20025;-82
2022/12/19 01:37:30;;;;;;;50.33;16.33;;;;;;;-148.88;100.00;77874.00;5015836;28;20038;-82
2022/12/19 01:39:55;;;;;;;44.75;18.13;;;;;;;-148.88;100.00;77867.88;5016336;28;20029;-82
2022/12/19 01:42:22;;;;;;;41.40;15.38;;;;;;;-148.88;100.00;77865.84;5015445;28;20141;-82
2022/12/19 01:45:21;;;;;;;50.92;17.52;;;;;;;-148.88;100.00;77853.66;5014420;28;20033;-82
2022/12/19 01:47:52;;;;;;;48.58;16.50;;;;;;;-148.88;100.00;77841.47;4997181;28;20030;-82
2022/12/19 01:50:23;;;;;;;48.78;17.27;;;;;;;-148.88;100.00;77821.16;5016257;28;20029;-82
2022/12/19 01:52:49;;;;;;;46.20;16.08;;;;;;;-148.88;100.00;77808.97;5016136;28;20061;-82
2022/12/19 01:55:15;;;;;;;41.55;16.85;;;;;;;-148.88;100.00;77804.88;5014753;28;20026;-82
2022/12/19 01:57:40;;;;;;;44.60;17.38;;;;;;;-148.88;100.00;77804.88;5014149;28;20034;-83
2022/12/19 02:00:08;;;;;;;46.22;17.10;;;;;;;-148.88;100.00;77800.81;5014305;28;20021;-82
2022/12/19 02:02:42;;;;;;;38.97;15.00;;;;;;;-148.88;100.00;77798.78;5014829;28;20072;-82
2022/12/19 02:05:08;;;;;;;47.13;15.90;;;;;;;-148.88;100.00;77784.56;5015466;28;20400;-82
2022/12/19 02:07:35;;;;;;;49.17;17.08;;;;;;;-148.88;100.00;77768.31;5014786;28;20093;-82
2022/12/19 02:10:00;;;;;;;51.28;17.35;;;;;;;-148.88;100.00;77756.13;5015623;28;20033;-82
2022/12/19 02:12:32;;;;;;;40.00;16.25;;;;;;;-148.88;100.00;77748.00;5015219;28;20026;-82
2022/12/19 02:15:00;;;;;;;40.28;14.85;;;;;;;-148.88;100.00;77743.94;5019461;28;20037;-82
2022/12/19 02:17:29;;;;;;;42.42;16.45;;;;;;;-148.88;100.00;77727.66;5017351;28;20033;-82
2022/12/19 02:20:13;;;;;;;45.53;16.25;;;;;;;-148.88;100.00;77715.47;5019023;28;20025;-83
2022/12/19 02:22:59;;;;;;;50.15;17.40;;;;;;;-148.88;100.00;77715.47;5018943;28;20022;-83
2022/12/19 02:25:40;;;;;;;43.10;15.95;;;;;;;-148.88;100.00;77701.25;5018835;28;20042;-82
2022/12/19 02:28:23;;;;;;;44.63;14.82;;;;;;;-148.88;100.00;77699.22;5020596;28;20029;-83
2022/12/19 02:31:13;;;;;;;42.22;16.20;;;;;;;-148.88;100.00;77691.09;5018807;28;20404;-83
2022/12/19 02:33:59;;;;;;;45.60;15.52;;;;;;;-148.88;100.00;77687.03;5018198;28;20354;-82
2022/12/19 02:36:54;;;;;;;42.28;14.30;;;;;;;-148.88;100.00;77691.09;5018166;28;20477;-83
2022/12/19 02:39:32;;;;;;;49.28;16.25;;;;;;;-148.88;100.00;77678.91;5018491;28;20021;-83
2022/12/19 02:42:00;;;;;;;43.92;15.27;;;;;;;-148.88;100.00;77685.00;5018269;28;20065;-83
2022/12/19 02:44:32;;;;;;;43.40;15.30;;;;;;;-148.88;100.00;77678.91;5018094;28;20030;-83
2022/12/19 02:47:02;;;;;;;44.60;14.95;;;;;;;-148.88;100.00;77676.88;5018293;28;20033;-81
2022/12/19 02:52:49;;;;;;;39.75;13.98;;;;;;;-148.88;100.00;77660.59;5019854;28;20033;-82
2022/12/19 02:55:22;;;;;;;35.60;14.10;;;;;;;-148.88;100.00;77650.44;5017225;28;20017;-82
2022/12/19 02:58:09;;;;;;;43.67;14.57;;;;;;;-148.88;100.00;77642.31;5018421;28;20072;-82
2022/12/19 03:00:48;;;;;;;42.20;15.35;;;;;;;-148.88;100.00;77646.38;5018857;28;20089;-81
2022/12/19 03:03:16;;;;;;;46.35;14.60;;;;;;;-148.88;100.00;77642.31;5024295;28;20026;-83
2022/12/19 03:05:49;;;;;;;41.08;16.13;;;;;;;-148.88;100.00;77642.31;5021386;28;20101;-82
2022/12/19 03:08:30;;;;;;;41.30;15.00;;;;;;;-148.88;100.00;77638.25;5021561;28;20026;-82
2022/12/19 03:10:59;;;;;;;45.95;16.52;;;;;;;-148.88;100.00;77638.25;5019854;28;20022;-83
2022/12/19 03:13:37;;;;;;;36.17;13.60;;;;;;;-148.88;100.00;77640.28;5018092;28;20125;-82
2022/12/19 03:16:05;;;;;;;46.10;15.02;;;;;;;-148.88;100.00;77626.06;5018284;28;20034;-83
2022/12/19 03:18:32;;;;;;;47.03;16.23;;;;;;;-148.88;100.00;77622.00;5020620;28;20030;-84
2022/12/19 03:21:36;;;;;;;45.97;16.33;;;;;;;-148.88;100.00;77615.91;5021245;28;20083;-83
2022/12/19 03:24:03;;;;;;;47.75;14.90;;;;;;;-148.88;100.00;77599.63;5007912;28;20044;-82
2022/12/19 03:26:35;;;;;;;40.63;15.48;;;;;;;-148.88;100.00;77593.53;5019575;28;20420;-82
2022/12/19 03:29:19;;;;;;;41.05;15.85;;;;;;;-148.88;100.00;77577.28;5018943;28;20058;-83
2022/12/19 03:31:45;;;;;;;43.22;15.65;;;;;;;-148.88;100.00;77565.09;5018536;28;20026;-84
2022/12/19 03:34:29;;;;;;;41.90;15.25;;;;;;;-148.88;100.00;77561.03;5015475;28;20453;-84
2022/12/19 03:36:58;;;;;;;36.08;13.68;;;;;;;-148.88;100.00;77569.16;5018735;28;20034;-82
2022/12/19 03:39:28;;;;;;;38.17;15.40;;;;;;;-148.88;100.00;77563.06;5019883;28;20030;-83
2022/12/19 03:44:41;;;;;;;40.22;14.80;;;;;;;-148.88;100.00;77552.91;5016294;28;20032;-83
2022/12/19 03:47:18;;;;;;;45.85;15.55;;;;;;;-148.88;100.00;77556.97;5014425;28;20404;-83
2022/12/19 03:49:45;;;;;;;44.08;14.90;;;;;;;-148.88;100.00;77544.78;4999845;28;20022;-83
2022/12/19 03:52:34;;;;;;;43.10;15.32;;;;;;;-148.88;100.00;77534.63;5017512;28;20038;-84
2022/12/19 03:55:08;;;;;;;45.47;14.93;;;;;;;-148.88;100.00;77526.47;5017984;28;20025;-82
2022/12/19 03:57:40;;;;;;;38.33;14.60;;;;;;;-148.88;100.00;77508.19;5017919;28;20026;-82
2022/12/19 04:00:09;;;;;;;42.42;16.42;;;;;;;-148.88;100.00;77506.16;5017925;28;20030;-83
2022/12/19 04:02:38;;;;;;;42.22;14.70;;;;;;;-148.88;100.00;77508.19;5017423;28;20022;-84
2022/12/19 04:05:08;;;;;;;43.13;15.32;;;;;;;-148.88;100.00;77498.03;5019186;28;20459;-83
2022/12/19 04:07:35;;;;;;;41.60;15.65;;;;;;;-148.88;100.00;77506.16;5019411;28;20025;-83
2022/12/19 04:10:05;;;;;;;39.85;14.68;;;;;;;-148.88;100.00;77487.88;5019259;28;20152;-84
2022/12/19 04:12:37;;;;;;;38.42;15.38;;;;;;;-148.88;100.00;77491.94;5016856;28;20072;-86
2022/12/19 04:15:04;;;;;;;38.63;15.35;;;;;;;-148.88;100.00;77475.69;5016142;28;20040;-84
2022/12/19 04:17:43;;;;;;;41.08;15.15;;;;;;;-148.88;100.00;77471.63;5020026;28;20080;-83
2022/12/19 04:20:14;;;;;;;39.50;15.45;;;;;;;-148.88;100.00;77473.66;5018955;28;20028;-84
2022/12/19 04:23:05;;;;;;;35.65;14.25;;;;;;;-148.88;100.00;77465.53;5016723;28;20118;-84
2022/12/19 04:25:37;;;;;;;41.30;15.90;;;;;;;-148.88;100.00;77451.28;5015922;28;20104;-86
2022/12/19 04:28:12;;;;;;;38.95;14.25;;;;;;;-148.88;100.00;77455.38;5015830;28;20484;-86
2022/12/19 04:30:40;;;;;;;35.58;14.27;;;;;;;-148.88;100.00;77453.31;5015569;28;20045;-84
2022/12/19 04:33:08;;;;;;;43.28;14.23;;;;;;;-148.88;100.00;77443.16;5015292;28;20018;-84
2022/12/19 04:35:34;;;;;;;39.97;14.43;;;;;;;-148.88;100.00;77451.28;5015008;28;20034;-84
2022/12/19 04:37:59;;;;;;;41.88;16.02;;;;;;;-148.88;100.00;77443.16;5014527;28;20018;-83
2022/12/19 04:40:25;;;;;;;37.03;15.02;;;;;;;-148.88;100.00;77437.06;5015035;28;20025;-84
2022/12/19 04:42:51;;;;;;;37.75;15.73;;;;;;;-148.88;100.00;77422.84;5012819;28;20061;-85
2022/12/19 04:45:18;;;;;;;42.53;16.10;;;;;;;-148.88;100.00;77412.69;5014634;28;20022;-83
2022/12/19 04:47:44;;;;;;;34.63;15.48;;;;;;;-148.88;100.00;77414.72;5015029;28;20517;-84
2022/12/19 04:50:11;;;;;;;36.08;13.75;;;;;;;-148.88;100.00;77410.66;5014596;28;20461;-83
2022/12/19 04:52:36;;;;;;;39.53;14.38;;;;;;;-148.88;100.00;77398.47;5013446;28;20026;-83
2022/12/19 04:55:01;;;;;;;36.65;14.05;;;;;;;-148.88;100.00;77394.41;5015010;28;20029;-84
2022/12/19 04:57:30;;;;;;;38.40;14.05;;;;;;;-148.88;100.00;77396.44;5013916;28;20080;-83
2022/12/19 04:59:56;;;;;;;33.30;13.45;;;;;;;-148.88;100.00;77386.28;5014525;28;20105;-83
2022/12/19 05:02:21;;;;;;;41.08;15.55;;;;;;;-148.88;100.00;77390.34;5014083;28;20060;-83
2022/12/19 05:04:56;;;;;;;34.97;14.77;;;;;;;-148.88;100.00;77390.34;5017356;28;20045;-84
2022/12/19 05:07:21;;;;;;;37.53;14.43;;;;;;;-148.88;100.00;77382.22;5014293;28;20076;-83
2022/12/19 05:09:47;;;;;;;45.38;16.23;;;;;;;-148.88;100.00;77382.22;5014493;28;20025;-84
2022/12/19 05:12:13;;;;;;;33.13;13.10;;;;;;;-148.88;100.00;77376.13;5013637;28;20395;-84
2022/12/19 05:14:38;;;;;;;37.88;15.25;;;;;;;-148.88;100.00;77370.00;5014935;28;20542;-82
2022/12/19 05:17:04;;;;;;;34.83;14.00;;;;;;;-148.88;100.00;77376.13;5016366;28;20026;-83
2022/12/19 05:19:30;;;;;;;34.78;13.35;;;;;;;-148.88;100.00;77370.00;5014641;28;20105;-83
2022/12/19 05:21:55;;;;;;;39.72;13.75;;;;;;;-148.88;100.00;77365.94;5013258;28;20033;-83
2022/12/19 05:24:21;;;;;;;33.28;14.45;;;;;;;-148.88;100.00;77363.91;5013516;28;20045;-81
2022/12/19 05:26:48;;;;;;;32.13;13.07;;;;;;;-148.88;100.00;77365.94;5016181;28;20040;-82
2022/12/19 05:29:13;;;;;;;37.35;14.02;;;;;;;-148.88;100.00;77357.81;5016783;28;20018;-82
2022/12/19 05:31:38;;;;;;;34.97;14.82;;;;;;;-148.88;100.00;77353.75;5013821;28;20025;-80
2022/12/19 05:34:03;;;;;;;37.50;14.55;;;;;;;-148.88;100.00;77347.66;5014217;28;20026;-82
2022/12/19 05:36:29;;;;;;;44.20;15.13;;;;;;;-148.88;100.00;77353.75;5014612;28;20345;-84
2022/12/19 05:38:54;;;;;;;35.92;13.50;;;;;;;-148.88;100.00;77351.72;5015876;28;20104;-83
2022/12/19 05:41:21;;;;;;;35.45;14.63;;;;;;;-148.88;100.00;77345.63;5016184;28;20034;-84
2022/12/19 05:43:52;;;;;;;42.17;15.07;;;;;;;-148.88;100.00;77345.63;5014356;28;20018;-85
2022/12/19 05:46:18;;;;;;;45.97;15.70;;;;;;;-148.88;100.00;77345.63;5016617;28;20025;-84
2022/12/19 05:48:44;;;;;;;36.88;14.65;;;;;;;-148.88;100.00;77347.66;5020204;28;20384;-84
2022/12/19 05:51:09;;;;;;;43.60;16.20;;;;;;;-148.88;100.00;77335.47;5019184;28;20477;-84
2022/12/19 05:53:36;;;;;;;35.05;15.07;;;;;;;-148.88;100.00;77341.56;5019478;28;20099;-84
2022/12/19 05:56:10;;;;;;;35.10;14.43;;;;;;;-148.88;100.00;77339.53;5019069;28;20028;-83
2022/12/19 05:58:36;;;;;;;37.00;15.38;;;;;;;-148.88;100.00;77333.44;5020006;28;20487;-84
2022/12/19 06:01:08;;;;;;;43.60;15.20;;;;;;;-148.88;100.00;77333.44;5020714;28;20500;-86
2022/12/19 06:03:33;;;;;;;39.47;15.02;;;;;;;-148.88;100.00;77329.38;5020546;28;20026;-84
2022/12/19 06:06:04;;;;;;;39.55;14.73;;;;;;;-148.88;100.00;77329.38;5018763;28;20040;-85
2022/12/19 06:08:30;;;;;;;42.70;15.57;;;;;;;-148.88;100.00;77333.44;5019381;28;20030;-84
2022/12/19 06:10:59;;;;;;;49.28;16.40;;;;;;;-148.88;100.00;77325.31;5018124;28;20571;-85
2022/12/19 06:13:24;;;;;;;40.95;16.33;;;;;;;-148.88;100.00;77329.38;5018911;28;20488;-85
2022/12/19 06:15:56;;;;;;;41.13;15.35;;;;;;;-148.88;100.00;77323.28;5018997;28;20072;-87
2022/12/19 06:18:21;;;;;;;42.78;16.83;;;;;;;-148.88;100.00;77329.38;5017340;28;20392;-86
2022/12/19 06:20:57;;;;;;;48.58;16.90;;;;;;;-148.88;100.00;77323.28;5016841;28;20481;-86
2022/12/19 06:23:22;;;;;;;48.88;17.63;;;;;;;-148.88;100.00;77329.38;5016080;28;20022;-86
2022/12/19 06:25:47;;;;;;;44.58;16.90;;;;;;;-148.88;100.00;77333.44;5016523;28;20080;-85
2022/12/19 06:28:13;;;;;;;45.72;16.95;;;;;;;-148.88;100.00;77327.34;5015507;28;20029;-85
2022/12/19 06:30:38;;;;;;;47.70;18.55;;;;;;;-148.88;100.00;77325.31;5016569;28;20393;-85
2022/12/19 06:33:03;;;;;;;51.47;19.63;;;;;;;-148.88;100.00;77323.28;5016432;28;20125;-86
2022/12/19 06:35:28;;;;;;;52.95;18.45;;;;;;;-148.88;100.00;77329.38;5016899;28;20054;-87
2022/12/19 06:37:54;;;;;;;48.72;18.10;;;;;;;-148.88;100.00;77335.47;5016621;28;20401;-86
2022/12/19 06:42:21;;;;;;;51.90;17.67;;;;;;;-148.88;100.00;77341.56;5017701;28;20441;-86
2022/12/19 06:43:04;;;;;;;52.45;19.27;;;;;;;-148.88;100.00;77333.44;5016062;28;20529;-86
2022/12/19 06:45:30;;;;;;;50.97;19.00;;;;;;;-148.88;100.00;77329.38;5016372;28;20108;-86
2022/12/19 06:47:55;;;;;;;55.83;20.00;;;;;;;-148.88;100.00;77331.41;5014514;28;20022;-86
2022/12/19 06:50:21;;;;;;;52.35;18.80;;;;;;;-148.88;100.00;77325.31;5014664;28;20028;-85
2022/12/19 06:52:46;;;;;;;59.45;20.05;;;;;;;-148.88;100.00;77321.25;5015083;28;20451;-86
2022/12/19 06:55:12;;;;;;;50.63;20.08;;;;;;;-148.88;100.00;77321.25;5016167;28;20048;-86
2022/12/19 06:57:44;;;;;;;50.85;20.05;;;;;;;-148.88;100.00;77327.34;5014292;28;20500;-86
2022/12/19 07:00:11;;;;;;;52.60;20.33;;;;;;;-148.88;100.00;77329.38;5015303;28;20427;-85
2022/12/19 07:02:37;;;;;;;52.80;19.15;;;;;;;-148.88;100.00;77325.31;5014655;28;20045;-85
2022/12/19 07:05:05;;;;;;;56.38;20.58;;;;;;;-148.88;100.00;77321.25;5016130;28;20057;-86
2022/12/19 07:07:31;;;;;;;56.92;19.98;;;;;;;-148.88;100.00;77315.16;5014252;28;20036;-85
2022/12/19 07:09:57;;;;;;;59.20;20.00;;;;;;;-148.88;100.00;77317.19;5015550;28;20105;-85
2022/12/19 07:12:22;;;;;;;52.05;19.05;;;;;;;-148.88;100.00;77321.25;5015382;28;20029;-85
2022/12/19 07:14:47;;;;;;;56.53;19.65;;;;;;;-148.88;100.00;77309.06;5015545;28;20044;-86
2022/12/19 07:17:13;;;;;;;59.47;20.92;;;;;;;-148.88;100.00;77292.81;5014235;28;20034;-86
2022/12/19 07:19:39;;;;;;;57.50;20.27;;;;;;;-148.88;100.00;77288.72;5015309;28;20109;-85
2022/12/19 07:22:08;;;;;;;65.43;19.45;;;;;;;-148.88;100.00;77272.47;5015339;28;20017;-86
2022/12/19 07:24:35;;;;;;;63.47;21.23;;;;;;;-148.88;100.00;77270.44;5015601;28;20029;-86
2022/12/19 07:27:01;;;;;;;69.20;20.25;;;;;;;-148.88;100.00;77266.38;5015957;28;20369;-86
2022/12/19 07:29:26;;;;;;;69.93;20.80;;;;;;;-148.88;100.00;77268.41;5014319;28;20124;-85
2022/12/19 07:31:52;;;;;;;70.05;20.67;;;;;;;-148.88;100.00;77264.34;5013623;28;20044;-86
2022/12/19 07:34:19;;;;;;;62.50;20.55;;;;;;;-148.88;100.00;77244.03;5015478;28;20050;-85
2022/12/19 07:36:45;;;;;;;70.65;20.70;;;;;;;-148.88;100.00;77227.78;5015040;28;20025;-86
2022/12/19 07:39:10;;;;;;;67.88;22.45;;;;;;;-148.88;100.00;77213.56;5013846;28;20163;-85
2022/12/19 07:41:37;;;;;;;63.30;20.58;;;;;;;-148.88;100.00;77191.19;5015709;28;20022;-86
2022/12/19 07:44:02;;;;;;;71.47;20.73;;;;;;;-148.88;100.00;77187.13;5014656;28;20030;-85
2022/12/19 07:46:29;;;;;;;70.55;20.88;;;;;;;-148.88;100.00;77191.19;5015201;28;20534;-86
2022/12/19 07:48:57;;;;;;;76.28;21.60;;;;;;;-148.88;100.00;77183.06;5013250;28;20477;-85
2022/12/19 07:51:22;;;;;;;67.75;21.75;;;;;;;-148.88;100.00;77187.13;5014885;28;20038;-85
2022/12/19 07:53:47;;;;;;;66.60;22.17;;;;;;;-148.88;100.00;77191.19;5014760;28;20041;-85
2022/12/19 07:56:14;;;;;;;71.60;22.38;;;;;;;-148.88;100.00;77195.25;5013383;28;20121;-85
2022/12/19 07:58:39;;;;;;;69.03;21.88;;;;;;;-148.88;100.00;77203.41;5014523;28;20014;-85
2022/12/19 08:01:05;;;;;;;73.18;22.35;;;;;;;-148.88;100.00;77201.34;5013131;28;20072;-86
2022/12/19 08:03:31;;;;;;;71.32;21.05;;;;;;;-148.88;100.00;77203.41;5013074;28;20026;-85
2022/12/19 08:06:04;;;;;;;62.22;20.88;;;;;;;-148.88;100.00;77203.41;5013234;28;20026;-85
2022/12/19 08:08:30;;;;;;;59.75;21.42;;;;;;;-148.88;100.00;77203.41;5014468;28;20475;-85
2022/12/19 08:11:05;;;;;;;61.17;20.35;;;;;;;-148.88;100.00;77205.44;5014797;28;20109;-85
2022/12/19 08:13:30;;;;;;;58.75;19.70;;;;;;;-148.88;100.00;77197.28;5014722;28;20488;-85
2022/12/19 08:15:59;;;;;;;60.38;19.73;;;;;;;-148.88;100.00;77187.13;5014453;28;20022;-86
2022/12/19 08:18:24;;;;;;;57.13;19.75;;;;;;;-148.88;100.00;77179.00;5014541;28;20064;-85
2022/12/19 08:20:50;;;;;;;58.58;18.33;;;;;;;-148.88;100.00;77174.94;5013360;28;20022;-86
2022/12/19 08:23:15;;;;;;;58.80;19.95;;;;;;;-148.88;100.00;77170.88;5013635;28;20025;-85
2022/12/19 08:25:41;;;;;;;58.33;18.67;;;;;;;-148.88;100.00;77158.69;5014092;28;20037;-86
2022/12/19 08:28:06;;;;;;;53.90;18.35;;;;;;;-148.88;100.00;77154.63;5014638;28;20029;-86
2022/12/19 08:30:32;;;;;;;59.03;18.35;;;;;;;-148.88;100.00;77150.56;5012995;28;20498;-86
2022/12/19 08:32:57;;;;;;;65.57;19.55;;;;;;;-148.88;100.00;77146.50;5014548;28;20030;-86
2022/12/19 08:35:22;;;;;;;58.75;19.33;;;;;;;-148.88;100.00;77148.53;5012759;28;20056;-86
2022/12/19 08:37:47;;;;;;;61.25;19.70;;;;;;;-148.88;100.00;77148.53;5014255;28;20030;-85
2022/12/19 08:40:13;;;;;;;58.92;20.40;;;;;;;-148.88;100.00;77142.44;5013871;28;20021;-85
2022/12/19 08:42:38;;;;;;;65.47;18.52;;;;;;;-148.88;100.00;77142.44;5013574;28;20080;-86
2022/12/19 08:45:04;;;;;;;56.13;19.23;;;;;;;-148.88;100.00;77134.31;5013768;28;20029;-89
2022/12/19 08:47:29;;;;;;;66.18;19.17;;;;;;;-148.88;100.00;77118.06;5013848;28;20025;-87
2022/12/19 08:49:55;;;;;;;55.60;18.30;;;;;;;-148.88;100.00;77114.00;5013793;28;20472;-86
2022/12/19 08:52:21;;;;;;;55.35;17.98;;;;;;;-148.88;100.00;77109.94;5014469;28;20060;-86
2022/12/19 08:54:46;;;;;;;55.78;18.77;;;;;;;-148.88;100.00;77101.78;5013909;28;20061;-87
2022/12/19 08:57:14;;;;;;;52.97;17.83;;;;;;;-148.88;100.00;77097.72;5012733;28;20057;-86
2022/12/19 08:59:43;;;;;;;58.38;18.35;;;;;;;-148.88;100.00;77089.59;5013350;28;20021;-87
2022/12/19 09:02:09;;;;;;;53.55;18.08;;;;;;;-148.88;100.00;77089.59;5012478;28;20034;-87
2022/12/19 09:05:21;;;;;;;57.08;19.63;;;;;;;-148.88;100.00;77073.34;5013490;28;20028;-87
2022/12/19 09:08:08;;;;;;;55.78;18.23;;;;;;;-148.88;100.00;77071.31;4933732;29;20055;-88
2022/12/19 09:10:48;;;;;;;54.20;18.05;;;;;;;-148.88;100.00;77065.22;4933861;29;20145;-88
2022/12/19 09:13:20;;;;;;;50.67;18.77;;;;;;;-148.88;100.00;77040.84;4997429;28;20119;-88
2022/12/19 09:15:49;;;;;;;58.60;18.88;;;;;;;-148.88;100.00;77036.78;5012116;28;20025;-86
2022/12/19 09:18:20;;;;;;;56.08;18.83;;;;;;;-148.88;100.00;77018.50;5013357;28;20034;-87
2022/12/19 09:20:45;;;;;;;56.00;19.05;;;;;;;-148.88;100.00;77018.50;5012487;28;20437;-87
2022/12/19 09:23:13;;;;;;;57.83;18.40;;;;;;;-148.88;100.00;77008.34;5012182;28;20037;-89
2022/12/19 09:25:39;;;;;;;56.28;18.48;;;;;;;-148.88;100.00;76998.16;5012047;28;20030;-87
2022/12/19 09:28:04;;;;;;;55.80;18.60;;;;;;;-148.88;100.00;76998.16;5012007;28;20388;-86
2022/12/19 09:31:01;;;;;;;58.13;17.95;;;;;;;-148.88;100.00;76992.06;5011626;28;20547;-88
2022/12/19 09:33:43;;;;;;;59.58;18.67;;;;;;;-148.88;100.00;76983.94;4992299;28;20037;-88
2022/12/19 09:36:27;;;;;;;59.03;18.50;;;;;;;-148.88;100.00;76979.88;5012143;28;20022;-88
2022/12/19 09:38:56;;;;;;;51.40;17.13;;;;;;;-148.88;100.00;76975.81;5011314;28;20507;-88
2022/12/19 09:44:58;;;;;;;49.67;17.77;;;;;;;-148.88;100.00;76959.56;4982152;28;20038;-88
2022/12/19 09:50:49;;;;;;;56.78;18.08;;;;;;;-148.88;100.00;76943.31;4971148;28;20098;-88
2022/12/19 09:53:27;;;;;;;52.95;18.40;;;;;;;-148.88;100.00;76937.22;5012296;28;20029;-88
2022/12/19 09:55:53;;;;;;;55.85;19.23;;;;;;;-148.88;100.00;76927.06;5014205;28;20083;-85
2022/12/19 09:58:53;;;;;;;60.50;20.27;;;;;;;-148.88;100.00;76927.06;5014601;28;20026;-85
2022/12/19 10:01:25;;;;;;;50.38;17.73;;;;;;;-148.88;100.00;76914.88;5014515;28;20124;-85
2022/12/19 10:04:21;;;;;;;55.45;19.08;;;;;;;-148.88;100.00;76904.72;5014804;28;20025;-87
2022/12/19 10:06:46;;;;;;;57.92;19.15;;;;;;;-148.88;100.00;76908.78;5014057;28;20101;-86
2022/12/19 10:09:18;;;;;;;55.55;19.38;;;;;;;-148.88;100.00;76902.69;5012783;28;20125;-87
2022/12/19 10:12:33;;;;;;;56.53;19.40;;;;;;;-148.88;100.00;76886.41;5013312;28;20033;-87
2022/12/19 10:15:14;;;;;;;44.25;16.73;;;;;;;-148.88;100.00;76890.50;5010876;28;20117;-86
2022/12/19 10:21:46;;;;;;;47.08;16.83;;;;;;;-148.88;100.00;76880.31;5013830;28;20088;-87
2022/12/19 10:24:37;;;;;;;51.40;18.65;;;;;;;-148.88;100.00;76872.19;5011459;28;20034;-87
2022/12/19 10:27:14;;;;;;;49.50;19.48;;;;;;;-148.88;100.00;76866.09;5012797;28;20460;-87
2022/12/19 10:30:34;;;;;;;47.55;19.27;;;;;;;-148.88;100.00;76866.09;5012653;28;20205;-85
2022/12/19 10:33:49;;;;;;;52.08;19.33;;;;;;;-148.88;100.00;76837.66;4933466;29;20054;-87
2022/12/19 10:37:14;;;;;;;42.92;17.58;;;;;;;-148.88;100.00;76833.59;4897639;29;20054;-86
2022/12/19 10:39:44;;;;;;;55.05;19.50;;;;;;;-148.88;100.00;76827.50;5015005;28;20056;-88
2022/12/19 10:45:48;;;;;;;47.72;18.85;;;;;;;-148.88;100.00;76811.25;5016180;28;20038;-86
2022/12/19 10:48:25;;;;;;;45.25;17.83;;;;;;;-148.88;100.00;76805.16;5014758;28;20030;-86
2022/12/19 10:51:20;;;;;;;45.80;18.45;;;;;;;-148.88;100.00;76790.94;5014717;28;20049;-86
2022/12/19 10:54:01;;;;;;;52.65;20.13;;;;;;;-148.88;100.00;76778.75;5003409;28;20404;-86
2022/12/19 10:56:31;;;;;;;43.92;18.65;;;;;;;-148.88;100.00;76778.75;5015563;28;20060;-87
2022/12/19 10:58:57;;;;;;;45.22;17.75;;;;;;;-148.88;100.00;76774.69;5016202;28;20168;-85
2022/12/19 11:01:37;;;;;;;48.70;18.52;;;;;;;-148.88;100.00;76778.75;5016008;28;20029;-85
2022/12/19 11:04:21;;;;;;;49.38;18.75;;;;;;;-148.88;100.00;76764.53;5015480;28;20057;-86
2022/12/19 11:06:46;;;;;;;;;;;;;;;-148.88;100.00;76772.66;5016018;28;20439;-86
2022/12/19 11:09:28;;;;;;;37.13;17.03;;;;;;;-148.88;100.00;76772.66;5014051;28;19921;-86
2022/12/19 11:12:05;;;;;;;41.08;17.83;;;;;;;-148.88;100.00;76768.59;5015843;28;20263;-84
2022/12/19 11:14:32;;;;;;;41.15;18.08;;;;;;;-148.88;100.00;76760.44;5015506;28;20049;-86
2022/12/19 11:16:57;;;;;;;44.40;18.52;;;;;;;-148.88;100.00;76758.41;5015457;28;20026;-85
2022/12/19 11:19:33;;;;;;;42.08;17.50;;;;;;;-148.88;100.00;76752.31;5015513;28;20025;-85
2022/12/19 11:22:23;;;;;;;43.78;18.08;;;;;;;-148.88;100.00;76756.41;5015312;28;20025;-84
2022/12/19 11:24:52;;;;;;;39.65;17.45;;;;;;;-148.88;100.00;76740.13;5004010;28;20035;-85
2022/12/19 11:27:29;;;;;;;34.17;17.25;;;;;;;-148.88;100.00;76742.16;5015324;28;20038;-85
2022/12/19 11:29:57;;;;;;;38.38;16.70;;;;;;;-148.88;100.00;76727.94;5015085;28;20091;-85
2022/12/19 11:32:35;;;;;;;35.50;16.23;;;;;;;-148.88;100.00;76719.81;5014977;28;20113;-85